Time;durP1;ratioP1;P1;durP2;ratioP2;P2;SDS_P1;SDS_P2;PMS_P1;PMS_P2;Temp;Humidity;BMP_temperature;BMP_pressure;BME280_temperature;BME280_humidity;BME280_pressure;Samples;Min_cycle;Max_cycle;Signal;HPM_P1;HPM_P2
2021/12/25 00:00:34;;;;;;;0.75;0.70;;;19.60;56.00;;;;;;5126006;28;20059;-42
2021/12/25 00:03:00;;;;;;;1.13;0.75;;;19.50;56.00;;;;;;5125763;28;20031;-43
2021/12/25 00:05:26;;;;;;;1.05;0.80;;;19.50;55.90;;;;;;5126151;28;20036;-42
2021/12/25 00:07:52;;;;;;;0.82;0.63;;;19.50;55.90;;;;;;5125714;28;20076;-42
2021/12/25 00:10:18;;;;;;;0.60;0.60;;;19.50;55.90;;;;;;5105528;28;20133;-42
2021/12/25 00:12:45;;;;;;;1.27;0.90;;;19.50;56.00;;;;;;5105052;28;20107;-42
2021/12/25 00:15:11;;;;;;;1.50;0.70;;;19.50;56.00;;;;;;5105455;28;20024;-42
2021/12/25 00:17:37;;;;;;;0.75;0.70;;;19.40;56.00;;;;;;5105406;28;20483;-44
2021/12/25 00:20:04;;;;;;;1.15;0.80;;;19.40;55.90;;;;;;5105143;28;20051;-42
2021/12/25 00:22:30;;;;;;;0.82;0.75;;;19.40;56.00;;;;;;5105345;28;20028;-41
2021/12/25 00:24:56;;;;;;;1.10;0.80;;;19.30;55.90;;;;;;5105377;28;20043;-42
2021/12/25 00:32:54;;;;;;;1.90;0.80;;;19.30;55.90;;;;;;5125380;28;20032;-42
2021/12/25 00:35:20;;;;;;;1.45;0.80;;;19.30;55.90;;;;;;5125671;28;20027;-44
2021/12/25 00:37:46;;;;;;;1.48;0.93;;;19.20;55.90;;;;;;5125734;27;20031;-44
2021/12/25 00:40:13;;;;;;;0.93;0.80;;;19.20;55.90;;;;;;5105048;28;20024;-42
2021/12/25 00:42:39;;;;;;;1.05;0.80;;;19.20;56.00;;;;;;5104397;28;20051;-41
2021/12/25 00:45:05;;;;;;;0.98;0.88;;;19.20;55.90;;;;;;5104694;28;20047;-42
2021/12/25 00:47:31;;;;;;;2.63;1.00;;;19.20;56.00;;;;;;5104942;28;20040;-42
2021/12/25 00:49:57;;;;;;;1.30;1.00;;;19.10;56.00;;;;;;5104676;28;20102;-42
2021/12/25 00:52:24;;;;;;;1.90;0.90;;;19.10;56.00;;;;;;5103742;28;20024;-41
2021/12/25 00:54:50;;;;;;;1.13;0.77;;;19.10;56.10;;;;;;5104763;28;20064;-41
2021/12/25 00:57:16;;;;;;;1.23;1.00;;;19.10;56.00;;;;;;5120606;28;20482;-41
2021/12/25 00:59:42;;;;;;;1.02;0.80;;;19.00;56.00;;;;;;5124550;28;20024;-42
2021/12/25 01:02:08;;;;;;;1.70;1.00;;;19.00;56.00;;;;;;5125024;28;20020;-43
2021/12/25 01:04:34;;;;;;;1.67;0.90;;;19.00;56.00;;;;;;5124697;27;20046;-44
2021/12/25 01:07:00;;;;;;;1.27;0.98;;;19.00;56.10;;;;;;5125013;28;20510;-43
2021/12/25 01:09:26;;;;;;;1.23;1.00;;;18.90;56.00;;;;;;5110224;27;20032;-43
2021/12/25 01:11:53;;;;;;;2.22;1.00;;;18.90;56.00;;;;;;5121455;28;20032;-43
2021/12/25 01:34:51;;;;;;;1.30;1.02;;;18.80;56.10;;;;;;5124321;28;20016;-42
2021/12/25 01:47:47;;;;;;;1.35;1.10;;;18.60;56.10;;;;;;5124309;28;20092;-42
2021/12/25 01:50:14;;;;;;;1.30;1.00;;;18.60;56.20;;;;;;5123824;28;20055;-41
2021/12/25 01:52:40;;;;;;;1.40;1.20;;;18.60;56.20;;;;;;5124262;28;20024;-44
2021/12/25 01:55:09;;;;;;;1.15;0.95;;;18.50;56.10;;;;;;5123862;28;20302;-41
2021/12/25 01:57:35;;;;;;;1.38;1.17;;;18.60;56.20;;;;;;5123869;28;20028;-41
2021/12/25 02:00:01;;;;;;;1.20;1.10;;;18.60;56.20;;;;;;5123704;28;20038;-42
2021/12/25 02:02:27;;;;;;;1.10;1.00;;;18.50;56.10;;;;;;5123447;28;20027;-41
2021/12/25 02:04:54;;;;;;;1.38;1.10;;;18.50;56.10;;;;;;5123587;28;20040;-41
2021/12/25 02:07:20;;;;;;;1.13;1.02;;;18.50;56.10;;;;;;5123928;28;20030;-41
2021/12/25 02:09:46;;;;;;;1.95;1.05;;;18.50;56.20;;;;;;5122648;28;20559;-42
2021/12/25 02:12:14;;;;;;;1.10;0.90;;;18.40;56.20;;;;;;5123683;28;20092;-42
2021/12/25 02:14:42;;;;;;;1.52;0.98;;;18.40;56.20;;;;;;5123316;28;20118;-41
2021/12/25 02:17:25;;;;;;;1.55;1.00;;;18.40;56.20;;;;;;5123553;28;20054;-41
2021/12/25 02:20:17;;;;;;;1.73;1.25;;;18.40;56.20;;;;;;5123720;28;20099;-42
2021/12/25 02:22:45;;;;;;;1.38;0.93;;;18.40;56.20;;;;;;5123823;28;20062;-41
2021/12/25 02:25:11;;;;;;;1.10;1.00;;;18.30;56.20;;;;;;5123042;28;20031;-42
2021/12/25 02:27:37;;;;;;;1.33;1.05;;;18.30;56.20;;;;;;5123428;28;20095;-43
2021/12/25 02:30:05;;;;;;;1.17;1.05;;;18.30;56.30;;;;;;5123441;28;20038;-42
2021/12/25 02:32:31;;;;;;;1.00;0.90;;;18.30;56.30;;;;;;5123320;28;20083;-41
2021/12/25 02:34:58;;;;;;;1.23;0.90;;;18.30;56.30;;;;;;5123051;28;20038;-41
2021/12/25 02:37:24;;;;;;;2.15;1.00;;;18.20;56.30;;;;;;5123468;28;20024;-42
2021/12/25 02:39:50;;;;;;;1.10;0.90;;;18.20;56.30;;;;;;5121994;28;20526;-43
2021/12/25 02:42:17;;;;;;;1.58;1.23;;;18.20;56.30;;;;;;5123180;28;20103;-41
2021/12/25 02:44:43;;;;;;;1.63;1.02;;;18.20;56.30;;;;;;5122619;28;20044;-44
2021/12/25 02:47:15;;;;;;;1.02;0.93;;;18.10;56.30;;;;;;5123492;28;20068;-45
2021/12/25 02:49:45;;;;;;;1.73;1.08;;;18.10;56.40;;;;;;5122912;28;20149;-46
2021/12/25 02:52:11;;;;;;;1.30;0.98;;;18.10;56.40;;;;;;5123051;28;20019;-42
2021/12/25 02:54:38;;;;;;;1.13;0.82;;;18.10;56.40;;;;;;5122854;28;20023;-42
2021/12/25 02:57:04;;;;;;;1.38;1.10;;;18.10;56.40;;;;;;5122735;28;20723;-41
2021/12/25 02:59:30;;;;;;;1.50;1.23;;;18.10;56.40;;;;;;5122990;28;20034;-41
2021/12/25 03:02:03;;;;;;;1.77;0.82;;;18.00;56.30;;;;;;5122991;28;20024;-43
2021/12/25 03:04:29;;;;;;;1.40;0.98;;;18.00;56.40;;;;;;5122152;28;20043;-41
2021/12/25 03:06:56;;;;;;;1.05;0.90;;;18.00;56.40;;;;;;5122988;28;20151;-44
2021/12/25 03:09:22;;;;;;;1.92;1.17;;;18.00;56.40;;;;;;5121555;28;20070;-44
2021/12/25 03:11:48;;;;;;;1.35;1.13;;;18.00;56.40;;;;;;5122968;28;20030;-42
2021/12/25 03:14:31;;;;;;;1.67;1.10;;;17.90;56.40;;;;;;5122265;28;20027;-42
2021/12/25 03:16:57;;;;;;;1.30;1.10;;;17.90;56.50;;;;;;5127203;28;20024;-43
2021/12/25 03:19:31;;;;;;;1.30;1.00;;;17.90;56.50;;;;;;5127130;28;20027;-42
2021/12/25 03:21:57;;;;;;;2.03;1.13;;;17.90;56.50;;;;;;5127037;28;20027;-44
2021/12/25 03:24:25;;;;;;;1.30;1.08;;;17.90;56.60;;;;;;5126643;28;20051;-42
2021/12/25 03:26:54;;;;;;;1.70;1.05;;;17.80;56.50;;;;;;5126939;28;20429;-41
2021/12/25 03:29:21;;;;;;;1.67;1.02;;;17.80;56.50;;;;;;5126731;27;20024;-43
2021/12/25 03:31:47;;;;;;;4.47;1.40;;;17.80;56.60;;;;;;5126547;28;20031;-39
2021/12/25 03:34:13;;;;;;;1.20;1.00;;;17.80;56.60;;;;;;5116177;28;20028;-43
2021/12/25 03:36:39;;;;;;;1.33;1.13;;;17.70;56.60;;;;;;5110444;28;20023;-40
2021/12/25 03:39:06;;;;;;;1.10;1.00;;;17.70;56.60;;;;;;5125562;28;20028;-41
2021/12/25 03:41:33;;;;;;;2.13;1.00;;;17.70;56.60;;;;;;5126488;28;20038;-42
2021/12/25 03:44:00;;;;;;;1.85;1.25;;;17.70;56.60;;;;;;5105831;28;20059;-41
2021/12/25 03:46:28;;;;;;;;;;;17.60;56.60;;;;;;5106294;28;20032;-41
2021/12/25 03:59:18;;;;;;;1.75;1.10;;;17.60;56.70;;;;;;5126054;28;20034;-43
2021/12/25 04:01:59;;;;;;;1.27;1.10;;;17.60;56.70;;;;;;5125966;28;20024;-43
2021/12/25 04:04:33;;;;;;;1.13;1.00;;;17.60;56.70;;;;;;5125939;28;20104;-41
2021/12/25 04:07:05;;;;;;;1.20;1.10;;;17.50;56.70;;;;;;5126080;28;20034;-41
2021/12/25 04:09:34;;;;;;;1.15;1.00;;;17.50;56.70;;;;;;5111979;28;20036;-41
2021/12/25 04:12:02;;;;;;;1.33;0.95;;;17.50;56.70;;;;;;5105608;28;20024;-41
2021/12/25 04:14:28;;;;;;;1.42;1.00;;;17.50;56.80;;;;;;5105298;28;20773;-42
2021/12/25 04:16:54;;;;;;;1.70;1.17;;;17.40;56.70;;;;;;5105225;28;20032;-41
2021/12/25 04:19:21;;;;;;;1.67;1.33;;;17.40;56.80;;;;;;5105449;28;20031;-40
2021/12/25 04:24:44;;;;;;;1.60;1.00;;;17.40;56.80;;;;;;5091617;28;20043;-41
2021/12/25 04:27:14;;;;;;;1.38;0.90;;;17.40;56.80;;;;;;5118930;28;20053;-41
2021/12/25 04:29:47;;;;;;;0.95;0.80;;;17.30;56.90;;;;;;5125416;28;20035;-41
2021/12/25 04:47:53;;;;;;;2.78;1.00;;;17.40;57.20;;;;;;5125545;28;20554;-42
2021/12/25 05:02:05;;;;;;;1.20;0.93;;;17.40;57.40;;;;;;5104765;28;20062;-41
2021/12/25 05:04:46;;;;;;;1.20;0.85;;;17.40;57.40;;;;;;5123331;28;20062;-41
2021/12/25 05:07:13;;;;;;;1.95;1.02;;;17.40;57.40;;;;;;5124772;28;20100;-41
2021/12/25 05:09:39;;;;;;;1.47;0.97;;;17.30;57.50;;;;;;5115283;28;20042;-40
2021/12/25 05:12:06;;;;;;;1.90;1.05;;;17.30;57.50;;;;;;5125003;28;20264;-40
2021/12/25 05:14:32;;;;;;;1.00;0.90;;;17.30;57.50;;;;;;5124430;28;20053;-41
2021/12/25 05:16:58;;;;;;;1.50;0.90;;;17.30;57.50;;;;;;5124661;28;20040;-44
2021/12/25 05:19:25;;;;;;;1.00;0.90;;;17.40;57.60;;;;;;5125033;28;20035;-41
2021/12/25 05:21:51;;;;;;;1.07;0.97;;;17.40;57.60;;;;;;5124891;28;20058;-42
2021/12/25 05:24:17;;;;;;;1.15;0.77;;;17.40;57.60;;;;;;5124245;28;20503;-42
2021/12/25 05:26:44;;;;;;;1.08;0.77;;;17.40;57.50;;;;;;5124296;28;20023;-41
2021/12/25 05:29:10;;;;;;;0.88;0.88;;;17.30;57.50;;;;;;5124072;28;20027;-41
2021/12/25 05:31:36;;;;;;;0.95;0.90;;;17.30;57.60;;;;;;5124705;28;20437;-42
2021/12/25 05:34:03;;;;;;;1.25;0.95;;;17.30;57.60;;;;;;5124671;28;20036;-41
2021/12/25 05:36:29;;;;;;;1.20;0.93;;;17.20;57.50;;;;;;5124094;28;20032;-41
2021/12/25 05:38:58;;;;;;;1.05;0.73;;;17.30;57.60;;;;;;5122976;28;20028;-42
2021/12/25 05:41:25;;;;;;;1.55;1.00;;;17.40;57.80;;;;;;5124135;28;20484;-40
2021/12/25 05:43:51;;;;;;;1.25;0.90;;;17.40;57.70;;;;;;5123566;28;20042;-43
2021/12/25 05:46:17;;;;;;;1.20;0.82;;;17.40;57.70;;;;;;5123876;28;20027;-43
2021/12/25 05:48:45;;;;;;;1.48;0.90;;;17.40;58.30;;;;;;5123791;28;20024;-43
2021/12/25 05:51:12;;;;;;;1.50;1.10;;;17.40;57.70;;;;;;5124204;27;20047;-41
2021/12/25 05:53:38;;;;;;;2.00;1.17;;;17.30;57.70;;;;;;5124074;27;20030;-41
2021/12/25 05:56:04;;;;;;;1.98;0.90;;;17.30;57.70;;;;;;5123866;28;20023;-41
2021/12/25 05:58:31;;;;;;;1.05;0.90;;;17.30;57.60;;;;;;5123693;28;20708;-42
2021/12/25 06:00:57;;;;;;;0.93;0.90;;;17.40;57.80;;;;;;5123642;28;20019;-41
2021/12/25 06:03:23;;;;;;;2.03;1.00;;;17.40;57.80;;;;;;5123933;28;20039;-41
2021/12/25 06:05:49;;;;;;;1.30;0.98;;;17.40;57.80;;;;;;5123636;28;20043;-41
2021/12/25 06:08:15;;;;;;;1.23;1.00;;;17.40;57.80;;;;;;5119980;27;20015;-41
2021/12/25 06:10:42;;;;;;;1.10;0.85;;;17.40;57.80;;;;;;5103334;28;20036;-41
2021/12/25 06:13:11;;;;;;;1.40;1.10;;;17.30;57.70;;;;;;5103234;28;20087;-41
2021/12/25 06:15:37;;;;;;;1.10;0.82;;;17.30;57.70;;;;;;5102863;28;20042;-40
2021/12/25 06:18:04;;;;;;;1.52;1.08;;;17.30;57.70;;;;;;5103026;28;20107;-41
2021/12/25 06:20:30;;;;;;;1.20;0.90;;;17.30;57.70;;;;;;5103058;28;20032;-41
2021/12/25 06:22:56;;;;;;;1.42;1.00;;;17.40;57.90;;;;;;5103131;28;20032;-42
2021/12/25 06:25:22;;;;;;;1.10;0.95;;;17.40;57.90;;;;;;5102971;28;20100;-41
2021/12/25 06:27:48;;;;;;;1.20;0.90;;;17.40;57.90;;;;;;5102645;28;20020;-41
2021/12/25 06:30:14;;;;;;;1.20;1.00;;;17.40;57.80;;;;;;5112714;28;20034;-41
2021/12/25 06:32:40;;;;;;;2.13;1.20;;;17.40;57.90;;;;;;5123482;28;20024;-41
2021/12/25 06:35:07;;;;;;;1.42;1.10;;;17.40;57.90;;;;;;5123120;28;20510;-41
2021/12/25 06:37:33;;;;;;;0.83;0.80;;;17.40;57.90;;;;;;5123348;28;20020;-42
2021/12/25 06:39:59;;;;;;;0.98;0.90;;;17.30;57.90;;;;;;5121499;28;20024;-42
2021/12/25 06:42:25;;;;;;;1.00;0.90;;;17.30;57.80;;;;;;5123384;28;20158;-41
2021/12/25 06:44:51;;;;;;;1.02;0.80;;;17.30;57.90;;;;;;5122912;28;20057;-42
2021/12/25 06:47:17;;;;;;;1.25;0.93;;;17.40;58.10;;;;;;5123078;28;20020;-41
2021/12/25 06:49:43;;;;;;;1.05;0.88;;;17.40;58.00;;;;;;5122014;28;20078;-43
2021/12/25 06:52:09;;;;;;;1.20;1.00;;;17.40;57.90;;;;;;5123098;28;20118;-40
2021/12/25 06:54:36;;;;;;;1.00;0.90;;;17.40;57.90;;;;;;5122579;28;20032;-42
2021/12/25 06:57:03;;;;;;;1.27;1.00;;;17.40;57.90;;;;;;5123014;28;20035;-41
2021/12/25 06:59:30;;;;;;;1.23;1.00;;;17.40;57.90;;;;;;5121212;28;20028;-41
2021/12/25 07:01:56;;;;;;;1.00;0.85;;;17.30;57.90;;;;;;5122123;28;20051;-41
2021/12/25 07:04:22;;;;;;;1.25;0.88;;;17.30;57.80;;;;;;5111118;28;20031;-43
2021/12/25 07:06:48;;;;;;;1.20;0.90;;;17.40;58.00;;;;;;5118924;28;20039;-41
2021/12/25 07:09:14;;;;;;;2.47;0.88;;;17.40;58.00;;;;;;5121838;28;20023;-41
2021/12/25 07:11:42;;;;;;;1.10;0.90;;;17.40;58.00;;;;;;5122643;28;20031;-41
2021/12/25 07:14:11;;;;;;;1.17;0.80;;;17.40;57.90;;;;;;5122742;28;20083;-42
2021/12/25 07:16:37;;;;;;;2.15;0.82;;;17.40;57.90;;;;;;5122451;28;20053;-41
2021/12/25 07:19:03;;;;;;;1.48;1.00;;;17.30;57.90;;;;;;5122689;28;20035;-41
2021/12/25 07:21:30;;;;;;;0.80;0.70;;;17.30;57.90;;;;;;5122656;28;20625;-42
2021/12/25 07:23:56;;;;;;;0.98;0.80;;;17.30;57.90;;;;;;5122673;28;20035;-42
2021/12/25 07:26:23;;;;;;;0.83;0.83;;;17.30;57.90;;;;;;5122713;28;20043;-42
2021/12/25 07:28:49;;;;;;;2.58;0.90;;;17.40;58.20;;;;;;5122155;28;20600;-41
2021/12/25 07:31:18;;;;;;;0.90;0.70;;;17.40;58.10;;;;;;5122204;28;20035;-42
2021/12/25 07:33:44;;;;;;;1.45;1.02;;;17.40;58.00;;;;;;5122811;28;20027;-41
2021/12/25 07:36:11;;;;;;;1.10;1.00;;;17.40;58.00;;;;;;5121238;28;20479;-41
2021/12/25 07:38:37;;;;;;;1.40;0.90;;;17.40;58.60;;;;;;5121263;28;20042;-41
2021/12/25 07:41:03;;;;;;;1.20;0.90;;;17.30;58.00;;;;;;5122178;28;20051;-42
2021/12/25 07:43:29;;;;;;;1.40;0.85;;;17.30;58.00;;;;;;5122567;28;20028;-41
2021/12/25 07:45:55;;;;;;;1.00;0.88;;;17.30;58.00;;;;;;5122223;28;20039;-41
2021/12/25 07:48:24;;;;;;;1.52;1.08;;;17.30;58.00;;;;;;5122372;28;20054;-40
2021/12/25 07:50:50;;;;;;;1.20;0.90;;;17.40;58.20;;;;;;5121869;28;20063;-41
2021/12/25 07:53:17;;;;;;;1.25;1.08;;;17.40;58.20;;;;;;5122496;28;20028;-41
2021/12/25 07:55:44;;;;;;;1.00;0.90;;;17.40;58.10;;;;;;5122562;28;20028;-41
2021/12/25 07:58:10;;;;;;;1.23;1.02;;;17.40;58.60;;;;;;5122261;28;20020;-41
2021/12/25 08:00:36;;;;;;;1.00;0.90;;;17.40;58.10;;;;;;5122545;28;20032;-42
2021/12/25 08:03:02;;;;;;;2.83;0.98;;;17.30;58.10;;;;;;5125863;28;20015;-41
2021/12/25 08:05:29;;;;;;;1.25;0.90;;;17.30;58.10;;;;;;5126021;28;20039;-43
2021/12/25 08:07:55;;;;;;;1.57;0.90;;;17.30;58.10;;;;;;5124766;27;20036;-40
2021/12/25 08:10:21;;;;;;;1.65;1.10;;;17.40;58.10;;;;;;5105473;28;20062;-40
2021/12/25 08:12:55;;;;;;;1.25;0.80;;;17.40;58.30;;;;;;5105543;28;20028;-41
2021/12/25 08:15:27;;;;;;;1.52;1.00;;;17.40;58.20;;;;;;5105513;28;20224;-41
2021/12/25 08:17:54;;;;;;;1.08;0.70;;;17.40;58.20;;;;;;5105625;28;20028;-41
2021/12/25 08:20:20;;;;;;;2.28;0.82;;;17.40;58.10;;;;;;5105423;28;20062;-41
2021/12/25 08:22:46;;;;;;;1.25;0.88;;;17.40;58.20;;;;;;5105096;28;20643;-43
2021/12/25 08:25:13;;;;;;;2.65;0.85;;;17.30;58.10;;;;;;5105464;28;20063;-41
2021/12/25 08:27:39;;;;;;;1.67;1.17;;;17.30;58.10;;;;;;5124752;28;20024;-41
2021/12/25 08:30:07;;;;;;;1.00;0.90;;;17.30;58.10;;;;;;5125603;28;20028;-41
2021/12/25 08:32:55;;;;;;;1.42;0.70;;;17.40;58.70;;;;;;5125482;28;20035;-42
2021/12/25 08:35:22;;;;;;;1.33;0.90;;;17.40;58.40;;;;;;5125704;28;20167;-41
2021/12/25 08:37:48;;;;;;;1.13;1.02;;;17.50;58.30;;;;;;5124210;28;20578;-42
2021/12/25 08:40:15;;;;;;;0.98;0.73;;;17.50;58.20;;;;;;5124605;28;20023;-41
2021/12/25 08:42:46;;;;;;;2.85;1.02;;;17.40;58.20;;;;;;5125430;28;20078;-41
2021/12/25 08:47:58;;;;;;;1.45;1.10;;;17.30;58.20;;;;;;5125295;28;20030;-41
2021/12/25 08:50:24;;;;;;;2.42;1.00;;;17.30;58.20;;;;;;5125090;28;20066;-40
2021/12/25 08:52:50;;;;;;;0.90;0.70;;;17.30;58.20;;;;;;5124895;28;20022;-43
2021/12/25 08:55:16;;;;;;;1.52;0.90;;;17.40;58.40;;;;;;5125410;28;20031;-41
2021/12/25 08:57:42;;;;;;;1.00;0.80;;;17.50;58.40;;;;;;5125345;28;20028;-41
2021/12/25 09:00:09;;;;;;;2.08;0.93;;;17.50;58.40;;;;;;5124755;28;20038;-42
2021/12/25 09:02:35;;;;;;;1.88;0.88;;;17.50;58.30;;;;;;5124244;27;20020;-41
2021/12/25 09:05:02;;;;;;;1.17;0.90;;;17.40;58.30;;;;;;5124964;28;20050;-40
2021/12/25 09:07:28;;;;;;;1.10;1.00;;;17.40;58.30;;;;;;5125108;27;20139;-41
2021/12/25 09:09:54;;;;;;;1.48;1.02;;;17.30;58.30;;;;;;5114205;27;20168;-40
2021/12/25 09:12:21;;;;;;;1.42;1.08;;;17.30;58.30;;;;;;5123880;28;20032;-40
2021/12/25 09:14:47;;;;;;;2.20;1.00;;;17.30;58.20;;;;;;5124465;28;20042;-41
2021/12/25 09:17:14;;;;;;;1.50;1.00;;;17.40;58.30;;;;;;5124706;28;20038;-41
2021/12/25 09:19:40;;;;;;;1.52;0.88;;;17.40;58.50;;;;;;5124779;28;20053;-40
2021/12/25 09:22:08;;;;;;;1.17;0.80;;;17.50;58.40;;;;;;5124580;28;20057;-40
2021/12/25 09:24:34;;;;;;;0.95;0.85;;;17.50;58.40;;;;;;5124561;28;20066;-40
2021/12/25 09:27:01;;;;;;;1.05;0.75;;;17.50;58.40;;;;;;5124441;28;20019;-41
2021/12/25 09:29:27;;;;;;;1.42;1.02;;;17.40;58.40;;;;;;5124119;28;20118;-40
2021/12/25 09:31:53;;;;;;;1.77;1.00;;;17.40;58.40;;;;;;5124676;28;20091;-40
2021/12/25 09:34:19;;;;;;;1.50;0.98;;;17.30;58.30;;;;;;5123911;28;20049;-40
2021/12/25 09:36:45;;;;;;;1.00;0.90;;;17.30;58.30;;;;;;5124613;28;20433;-40
2021/12/25 09:39:11;;;;;;;1.63;0.98;;;17.40;58.40;;;;;;5122948;28;20026;-41
2021/12/25 09:41:37;;;;;;;1.52;1.10;;;17.50;58.50;;;;;;5124307;28;20028;-41
2021/12/25 09:44:04;;;;;;;2.50;1.15;;;17.50;58.50;;;;;;5124007;28;20089;-41
2021/12/25 09:46:30;;;;;;;1.83;1.08;;;17.50;58.50;;;;;;5124084;28;20430;-41
2021/12/25 09:48:57;;;;;;;1.10;0.90;;;17.50;58.50;;;;;;5123953;28;20027;-41
2021/12/25 09:51:23;;;;;;;1.27;0.97;;;17.50;58.50;;;;;;5124115;28;20058;-41
2021/12/25 09:54:04;;;;;;;0.85;0.82;;;17.40;58.50;;;;;;5123859;28;20275;-43
2021/12/25 09:56:31;;;;;;;1.10;0.90;;;17.40;58.40;;;;;;5122354;28;20038;-41
2021/12/25 09:58:57;;;;;;;1.00;0.73;;;17.40;58.40;;;;;;5123827;28;20042;-41
2021/12/25 10:01:56;;;;;;;1.20;0.80;;;17.30;58.40;;;;;;5123865;28;20043;-41
2021/12/25 10:04:35;;;;;;;0.80;0.63;;;17.40;58.40;;;;;;5060079;28;20079;-41
2021/12/25 10:07:17;;;;;;;1.67;1.02;;;17.40;58.60;;;;;;5060490;28;20084;-41
2021/12/25 10:09:45;;;;;;;0.80;0.70;;;17.50;58.60;;;;;;5060040;28;20040;-43
2021/12/25 10:12:12;;;;;;;;;;;17.50;58.60;;;;;;5060651;28;20059;-41
2021/12/25 10:14:42;;;;;;;1.10;1.00;;;17.50;58.60;;;;;;5059602;28;19915;-41
2021/12/25 10:17:16;;;;;;;0.88;0.70;;;17.50;58.60;;;;;;5060060;28;20033;-40
2021/12/25 10:19:42;;;;;;;2.08;1.00;;;17.40;58.60;;;;;;5060017;28;20029;-41
2021/12/25 10:22:10;;;;;;;1.05;0.80;;;17.40;58.60;;;;;;5060169;28;20081;-41
2021/12/25 10:24:51;;;;;;;1.35;1.13;;;17.40;58.50;;;;;;5059609;28;20120;-41
2021/12/25 10:27:20;;;;;;;0.93;0.85;;;17.40;58.50;;;;;;5060020;28;20037;-41
2021/12/25 10:29:46;;;;;;;1.17;0.82;;;17.40;58.60;;;;;;5059672;28;20040;-42
2021/12/25 10:32:20;;;;;;;1.00;0.90;;;17.50;58.80;;;;;;5059855;28;20036;-41
2021/12/25 10:34:46;;;;;;;2.20;0.90;;;17.50;58.70;;;;;;5059709;28;20274;-41
2021/12/25 10:37:14;;;;;;;1.35;0.90;;;17.50;58.70;;;;;;5059889;28;20025;-41
2021/12/25 10:39:40;;;;;;;1.30;1.00;;;17.50;58.70;;;;;;5083838;28;20055;-41
2021/12/25 10:42:13;;;;;;;1.55;1.13;;;17.50;58.70;;;;;;5123272;28;20502;-41
2021/12/25 10:44:45;;;;;;;2.28;1.20;;;17.40;58.70;;;;;;5122471;28;20130;-41
2021/12/25 10:47:15;;;;;;;1.50;1.10;;;17.40;58.70;;;;;;5123064;28;20028;-40
2021/12/25 10:50:14;;;;;;;1.63;1.08;;;17.40;58.60;;;;;;5122841;28;20065;-41
2021/12/25 10:52:44;;;;;;;;;;;17.40;58.60;;;;;;5118386;28;20458;-41
2021/12/25 10:55:24;;;;;;;1.65;0.93;;;17.40;58.60;;;;;;5122525;28;20425;-42
2021/12/25 10:57:57;;;;;;;1.45;0.85;;;17.50;58.80;;;;;;5102753;28;20042;-42
2021/12/25 11:00:30;;;;;;;1.23;1.00;;;17.50;58.80;;;;;;5113701;28;20024;-43
2021/12/25 11:02:59;;;;;;;1.30;1.00;;;17.50;58.80;;;;;;5123000;28;20034;-41
2021/12/25 11:05:36;;;;;;;1.10;1.00;;;17.50;58.80;;;;;;5113786;28;20039;-41
2021/12/25 11:08:11;;;;;;;2.15;0.95;;;17.50;58.80;;;;;;5122325;28;20024;-41
2021/12/25 11:11:06;;;;;;;1.20;0.77;;;17.50;58.80;;;;;;5122749;28;20066;-41
2021/12/25 11:13:36;;;;;;;1.60;1.05;;;17.40;58.80;;;;;;5114345;28;20032;-42
2021/12/25 11:16:12;;;;;;;1.20;1.10;;;17.40;58.80;;;;;;5122287;28;20838;-41
2021/12/25 11:19:12;;;;;;;2.63;1.00;;;17.40;58.70;;;;;;5122649;28;20085;-41
2021/12/25 11:21:44;;;;;;;1.83;0.90;;;17.40;58.60;;;;;;5122715;28;20040;-41
2021/12/25 11:24:12;;;;;;;2.00;1.13;;;17.50;58.90;;;;;;5122118;28;20024;-42
2021/12/25 11:26:39;;;;;;;0.80;0.80;;;17.50;58.90;;;;;;5122661;28;20034;-42
2021/12/25 11:29:11;;;;;;;1.02;0.85;;;17.50;58.90;;;;;;5122603;28;20022;-41
2021/12/25 11:31:37;;;;;;;1.55;1.00;;;17.50;58.90;;;;;;5122373;28;20028;-41
2021/12/25 11:34:04;;;;;;;1.10;1.00;;;17.50;58.90;;;;;;5122373;28;20031;-41
2021/12/25 11:36:30;;;;;;;0.82;0.75;;;17.50;58.90;;;;;;5124034;28;20023;-40
2021/12/25 11:38:56;;;;;;;0.80;0.80;;;17.50;58.90;;;;;;5117663;28;20036;-41
2021/12/25 11:41:26;;;;;;;1.52;1.10;;;17.40;58.80;;;;;;5113823;28;20020;-41
2021/12/25 11:43:54;;;;;;;1.75;1.10;;;17.40;58.80;;;;;;5126472;28;20057;-42
2021/12/25 11:46:20;;;;;;;2.47;0.95;;;17.40;58.80;;;;;;5125867;28;20126;-44
2021/12/25 11:48:47;;;;;;;1.33;1.05;;;17.50;58.90;;;;;;5118496;28;20020;-41
2021/12/25 11:51:33;;;;;;;1.20;1.00;;;17.50;59.00;;;;;;5107839;28;20492;-43
2021/12/25 11:56:34;;;;;;;1.92;1.00;;;17.50;58.90;;;;;;5124586;28;20128;-41
2021/12/25 11:59:05;;;;;;;1.55;1.25;;;17.50;59.00;;;;;;5126072;28;20024;-42
2021/12/25 12:01:33;;;;;;;1.48;1.10;;;17.40;58.90;;;;;;5104101;28;20054;-41
2021/12/25 12:03:59;;;;;;;1.52;1.10;;;17.40;58.90;;;;;;5105791;28;20032;-41
2021/12/25 12:06:46;;;;;;;1.30;0.93;;;17.40;58.90;;;;;;5105586;28;20127;-40
2021/12/25 12:09:20;;;;;;;1.15;1.02;;;17.40;58.80;;;;;;5106242;28;20055;-40
2021/12/25 12:11:50;;;;;;;1.45;0.90;;;17.50;59.00;;;;;;5105555;28;20056;-40
2021/12/25 12:14:21;;;;;;;1.08;0.90;;;17.50;59.00;;;;;;5105559;28;20039;-41
2021/12/25 12:16:50;;;;;;;1.50;1.13;;;17.50;59.00;;;;;;5104987;28;20093;-41
2021/12/25 12:19:31;;;;;;;1.05;0.95;;;17.50;59.60;;;;;;5105656;28;20031;-41
2021/12/25 12:27:40;;;;;;;1.33;0.98;;;17.40;59.00;;;;;;5115972;28;19911;-41
2021/12/25 12:30:10;;;;;;;1.88;0.90;;;17.40;59.00;;;;;;5125708;28;20020;-41
2021/12/25 12:32:43;;;;;;;1.10;0.95;;;17.40;58.90;;;;;;5125694;28;20031;-41
2021/12/25 12:35:36;;;;;;;1.65;1.25;;;17.50;59.10;;;;;;5125437;27;20063;-41
2021/12/25 12:38:23;;;;;;;1.85;1.08;;;17.50;59.10;;;;;;5117224;27;20043;-41
2021/12/25 12:41:34;;;;;;;1.17;1.00;;;17.50;59.00;;;;;;5105197;28;20028;-41
2021/12/25 12:44:06;;;;;;;1.70;1.10;;;17.50;59.00;;;;;;5097299;28;20099;-41
2021/12/25 12:46:48;;;;;;;1.00;0.90;;;17.50;59.10;;;;;;5104599;28;20032;-41
2021/12/25 12:49:25;;;;;;;1.02;0.90;;;17.40;59.10;;;;;;5103896;28;20508;-41
2021/12/25 12:52:33;;;;;;;1.45;0.95;;;17.40;59.10;;;;;;5104819;28;20028;-40
2021/12/25 12:55:07;;;;;;;0.80;0.73;;;17.40;59.10;;;;;;5041614;28;20037;-40
2021/12/25 12:57:44;;;;;;;1.27;0.85;;;17.40;59.00;;;;;;5059309;28;20096;-41
2021/12/25 13:00:22;;;;;;;1.60;1.00;;;17.50;59.20;;;;;;5050605;28;20033;-44
2021/12/25 13:02:52;;;;;;;1.52;1.15;;;17.50;59.10;;;;;;5061375;28;20025;-41
2021/12/25 13:05:21;;;;;;;0.98;0.77;;;17.50;59.10;;;;;;5061299;28;20041;-40
2021/12/25 13:07:49;;;;;;;0.75;0.73;;;17.50;59.10;;;;;;5061281;28;20025;-41
2021/12/25 13:10:29;;;;;;;1.40;1.00;;;17.40;59.10;;;;;;5061230;28;20040;-41
2021/12/25 13:13:31;;;;;;;1.67;1.20;;;17.40;59.10;;;;;;5046084;28;20048;-41
2021/12/25 13:16:05;;;;;;;1.00;0.85;;;17.40;59.10;;;;;;5060774;28;20124;-42
2021/12/25 13:18:34;;;;;;;1.08;0.98;;;17.40;59.10;;;;;;5061244;28;20585;-41
2021/12/25 13:21:00;;;;;;;1.38;0.98;;;17.40;59.50;;;;;;5061323;28;20055;-41
2021/12/25 13:23:38;;;;;;;1.30;1.00;;;17.50;59.30;;;;;;5061249;28;20029;-41
2021/12/25 13:26:06;;;;;;;0.90;0.70;;;17.50;59.20;;;;;;5060856;28;20048;-41
2021/12/25 13:28:35;;;;;;;2.05;0.98;;;17.50;59.20;;;;;;5061078;28;20029;-41
2021/12/25 13:31:04;;;;;;;0.95;0.85;;;17.50;59.20;;;;;;5064794;28;20036;-41
2021/12/25 13:33:34;;;;;;;1.42;1.05;;;17.50;59.20;;;;;;5124604;28;20020;-41
2021/12/25 13:36:11;;;;;;;1.02;0.90;;;17.40;59.20;;;;;;5123806;28;20023;-43
2021/12/25 13:38:46;;;;;;;1.73;1.05;;;17.40;59.20;;;;;;5123035;28;20051;-42
2021/12/25 13:41:15;;;;;;;1.40;1.30;;;17.40;59.20;;;;;;5124357;28;20715;-41
2021/12/25 13:43:41;;;;;;;1.00;0.90;;;17.40;59.10;;;;;;5124050;28;20087;-41
2021/12/25 13:46:07;;;;;;;1.38;0.93;;;17.40;59.10;;;;;;5123646;28;20054;-41
2021/12/25 13:48:39;;;;;;;1.40;1.00;;;17.50;59.30;;;;;;5123599;28;20019;-41
2021/12/25 13:51:06;;;;;;;1.02;0.80;;;17.50;59.30;;;;;;5123514;28;20067;-41
2021/12/25 13:53:32;;;;;;;1.30;0.98;;;17.50;59.30;;;;;;5123606;28;20377;-41
2021/12/25 13:56:07;;;;;;;1.10;0.95;;;17.50;59.30;;;;;;5124096;28;20023;-40
2021/12/25 13:58:33;;;;;;;1.40;1.10;;;17.50;59.30;;;;;;5123650;28;20063;-41
2021/12/25 14:00:59;;;;;;;1.10;0.80;;;17.50;59.30;;;;;;5123447;28;20701;-41
2021/12/25 14:03:26;;;;;;;1.00;0.90;;;17.50;59.30;;;;;;5123823;28;20039;-41
2021/12/25 14:05:53;;;;;;;1.33;0.93;;;17.50;59.30;;;;;;5123814;28;20130;-41
2021/12/25 14:08:28;;;;;;;1.20;1.10;;;17.40;59.20;;;;;;5122824;27;20023;-42
2021/12/25 14:10:59;;;;;;;1.42;1.23;;;17.40;59.20;;;;;;5123571;28;20035;-41
2021/12/25 14:13:25;;;;;;;1.30;1.10;;;17.40;59.20;;;;;;5123888;28;20110;-41
2021/12/25 14:15:54;;;;;;;1.63;0.83;;;17.40;59.20;;;;;;5123408;28;20034;-41
2021/12/25 14:18:22;;;;;;;1.30;0.80;;;17.50;60.00;;;;;;5105538;28;20020;-40
2021/12/25 14:20:48;;;;;;;1.08;0.70;;;17.50;59.40;;;;;;5123310;28;20090;-40
2021/12/25 14:23:20;;;;;;;0.98;0.90;;;17.50;59.40;;;;;;5123482;28;20023;-41
2021/12/25 14:25:53;;;;;;;1.10;1.00;;;17.50;59.40;;;;;;5123410;28;20035;-42